メインページ
METAR-TAF:

METAR-TAF

空港 :

ブルネイ, ブルネイ

ブルネイ国際空港

緯度: 04-56N, 経度: 114-56E, 海抜: 22m

現時点の気象観測

当レポートは44分前の14:00(UTC)に作成
の風 6kt
気温 29°C
湿度 84%
気圧 1011 hPa
視程10km以上
高度1500ftの雲はほとんどない
高度30000ftの千切れ雲あり

METAR: WBSB 271400Z 17006KT 9999 FEW015 BKN300 29/26 Q1011 NOSIG

時間: 22:44 (14:44 UTC)

予報

当レポートは3時間54分前の10:50(UTC)に作成
予報は27日の 12時(UTC)から 28日の 18時(UTC)まで有効
南/南西の風 3kt
視程: 8000m
高度1500ftの雲はほとんどない
高度1600ftの雲はほとんどない, 積乱雲.
28日の 03時(UTC)から 28日の 05時(UTC)まで徐々に
北/北西の風 9kt
高度1600ftの雲はほとんどない
高度1700ftの雲はほとんどない, 積乱雲.

TAF: WBSB 271050Z 2712/2818 20003KT 8000 FEW015 FEW016CB BECMG 2803/2805 33009KT FEW016 FEW017CB

4,000以上の空港の気象観測と天気予報(METAR報とTAF報)

利用可能な観測所は地図上に黄色い丸と赤い丸で示す。

丸の上にカーソルを重ねると観測所名を参照できる。

次にクリックすると気象観測と天気予報を参照できる。

マップの切り替え:黒色「×」印の緑ボタンをクリックして拡大、「-」印の緑ボタンをクリックして縮小、緑色の三角印をクリックして隣りの地図に切り替え


METAR-TAF: